BICRR weather

Cerreto Castello
Cerreto Castello (BI), Piedmont, Italy

Public forecast

Using degrees Celsius for public forecast. Weather courtesy of forecast.io.

METAR (pilot weather report)

Closest report is Cameri Air Base [MIL], 21.4 nm (39.6 km) E. Retrieved 2019/07/15 16:55 UTC (18 minutes ago):

LIMN 151655Z VRB02KT CAVOK 24/13 Q1012 RMK FEW FEW090 VIS MIN 9999 BLK BLU

TAF (pilot weather forecast)

Forecast is more than 12 hours old.

Closest forecast is Cameri Air Base [MIL], 21.4 nm (39.6 km) E. Retrieved 2010/11/18 12:24 UTC (9 years ago):

TAF TAF LIMN 181100Z 1812/1921 VRB03KT 1500 RA BR BKN030